Terminal Aerodrome Forecast
Issued by NWS

Home | Current Version | Previous Version | Text Only | Print | Product List | Glossary Off
Versions: 1 2 3 4 5 6 7 8 9 10 11 12 13 14 15 16

000
FTUS42 KMHX 160500 RRA
TAFISO
TAF
KISO 160543Z 1606/1706 00000KT 2SM BR SKC
     FM160800 00000KT 2SM BR BKN007
     FM161300 21006KT P6SM SCT040
     FM161900 21008KT P6SM VCSH BKN040
     FM170100 27005KT P6SM BKN100
      AMD LTD TO CLD VIS AND WIND=

USA.gov is the U.S. government's official web portal to all federal, state and local government web resources and services.